createdAt,value
2022-08-25T00:00:13.069Z,99347.31
2022-08-25T00:02:39.770Z,99349.41
2022-08-25T00:05:08.086Z,99335.63
2022-08-25T00:07:37.048Z,99339.88
2022-08-25T00:10:07.140Z,99333.44
2022-08-25T00:12:35.473Z,99343.75
2022-08-25T00:15:02.089Z,99335.97
2022-08-25T00:17:29.574Z,99338.94
2022-08-25T00:19:56.368Z,99333.88
2022-08-25T00:22:23.196Z,99337.88
2022-08-25T00:24:50.134Z,99333.06
2022-08-25T00:27:18.416Z,99327.06
2022-08-25T00:29:45.111Z,99336.66
2022-08-25T00:32:13.568Z,99327.91
2022-08-25T00:34:41.156Z,99328.34
2022-08-25T00:37:11.981Z,99332.47
2022-08-25T00:39:40.987Z,99334.09
2022-08-25T00:42:15.788Z,99327.25
2022-08-25T00:44:44.073Z,99336.25
2022-08-25T00:47:12.668Z,99334.97
2022-08-25T00:49:44.223Z,99335.81
2022-08-25T00:52:21.193Z,99340.63
2022-08-25T00:55:07.925Z,99333.91
2022-08-25T00:57:43.315Z,99327.66
2022-08-25T01:00:19.916Z,99336.34
2022-08-25T01:02:47.042Z,99337.13
2022-08-25T01:05:15.062Z,99327.78
2022-08-25T01:07:44.701Z,99332.81
2022-08-25T01:10:13.841Z,99331.25
2022-08-25T01:12:41.491Z,99320.81
2022-08-25T01:15:10.650Z,99329.88
2022-08-25T01:17:53.429Z,99327.34
2022-08-25T01:20:24.075Z,99326.13
2022-08-25T01:22:57.855Z,99329.16
2022-08-25T01:25:53.938Z,99333.84
2022-08-25T01:28:21.413Z,99321.38
2022-08-25T01:30:50.315Z,99328.34
2022-08-25T01:33:17.710Z,99326.88
2022-08-25T01:35:45.555Z,99334.50
2022-08-25T01:38:13.135Z,99318.06
2022-08-25T01:40:43.011Z,99329.69
2022-08-25T01:43:16.260Z,99318.63
2022-08-25T01:45:46.408Z,99320.22
2022-08-25T01:48:14.140Z,99318.59
2022-08-25T01:50:42.446Z,99324.13
2022-08-25T01:53:40.019Z,99316.91
2022-08-25T01:56:16.097Z,99319.53
2022-08-25T01:58:46.328Z,99320.84
2022-08-25T02:01:16.297Z,99319.41
2022-08-25T02:03:46.355Z,99321.03
2022-08-25T02:06:17.314Z,99312.31
2022-08-25T02:08:44.335Z,99321.63
2022-08-25T02:11:14.737Z,99318.75
2022-08-25T02:13:43.275Z,99319.59
2022-08-25T02:16:17.969Z,99322.19
2022-08-25T02:18:46.541Z,99310.78
2022-08-25T02:21:15.697Z,99310.22
2022-08-25T02:23:44.281Z,99306.28
2022-08-25T02:26:12.731Z,99308.13
2022-08-25T02:28:40.893Z,99307.19
2022-08-25T02:31:07.719Z,99302.59
2022-08-25T02:33:34.377Z,99297.22
2022-08-25T02:36:03.114Z,99303.19
2022-08-25T02:38:33.096Z,99308.13
2022-08-25T02:41:02.401Z,99304.03
2022-08-25T02:43:31.202Z,99311.91
2022-08-25T02:46:00.267Z,99301.28
2022-08-25T02:48:28.739Z,99306.25
2022-08-25T02:50:55.836Z,99306.53
2022-08-25T02:53:22.620Z,99308.03
2022-08-25T02:55:51.284Z,99305.72
2022-08-25T02:58:18.452Z,99309.22
2022-08-25T03:00:46.914Z,99301.22
2022-08-25T03:03:14.140Z,99304.31
2022-08-25T03:05:41.102Z,99305.50
2022-08-25T03:08:09.401Z,99298.72
2022-08-25T03:10:37.855Z,99306.69
2022-08-25T03:13:05.302Z,99304.22
2022-08-25T03:15:33.564Z,99300.72
2022-08-25T03:18:02.300Z,99305.56
2022-08-25T03:20:30.692Z,99303.13
2022-08-25T03:22:57.547Z,99308.91
2022-08-25T03:25:44.314Z,99309.44
2022-08-25T03:28:11.855Z,99305.03
2022-08-25T03:30:39.259Z,99304.66
2022-08-25T03:33:06.789Z,99311.59
2022-08-25T03:35:33.727Z,99304.72
2022-08-25T03:38:01.649Z,99298.75
2022-08-25T03:40:30.500Z,99300.75
2022-08-25T03:42:59.705Z,99295.28
2022-08-25T03:45:27.215Z,99301.59
2022-08-25T03:47:55.325Z,99297.78
2022-08-25T03:50:25.078Z,99296.63
2022-08-25T03:52:54.122Z,99302.47
2022-08-25T03:55:22.959Z,99305.13
2022-08-25T03:57:49.923Z,99305.56
2022-08-25T04:00:17.694Z,99297.47
2022-08-25T04:02:45.985Z,99301.16
2022-08-25T04:05:13.856Z,99299.28
2022-08-25T04:07:43.140Z,99295.16
2022-08-25T04:10:11.165Z,99300.47
2022-08-25T04:12:38.537Z,99295.16
2022-08-25T04:15:06.345Z,99280.59
2022-08-25T04:17:33.918Z,99290.44
2022-08-25T04:20:02.504Z,99282.69
2022-08-25T04:22:31.257Z,99282.56
2022-08-25T04:25:01.017Z,99279.22
2022-08-25T04:27:27.988Z,99278.84
2022-08-25T04:29:55.188Z,99281.72
2022-08-25T04:32:23.073Z,99279.00
2022-08-25T04:34:50.197Z,99292.34
2022-08-25T04:37:17.095Z,99284.66
2022-08-25T04:39:44.008Z,99278.41
2022-08-25T04:42:11.651Z,99291.13
2022-08-25T04:44:39.136Z,99286.66
2022-08-25T04:47:06.239Z,99286.31
2022-08-25T04:49:33.247Z,99291.25
2022-08-25T04:52:00.301Z,99290.09
2022-08-25T04:54:28.632Z,99293.81
2022-08-25T04:56:59.189Z,99286.09
2022-08-25T04:59:29.433Z,99299.66
2022-08-25T05:01:59.490Z,99299.91
2022-08-25T05:04:28.311Z,99299.75
2022-08-25T05:06:56.942Z,99303.72
2022-08-25T05:09:25.432Z,99310.38
2022-08-25T05:11:53.504Z,99307.00
2022-08-25T05:14:26.160Z,99302.00
2022-08-25T05:16:53.774Z,99299.00
2022-08-25T05:19:20.435Z,99291.50
2022-08-25T05:21:48.058Z,99287.47
2022-08-25T05:24:15.744Z,99279.91
2022-08-25T05:26:44.283Z,99280.72
2022-08-25T05:29:12.082Z,99281.75
2022-08-25T05:31:43.106Z,99292.13
2022-08-25T05:34:12.438Z,99287.19
2022-08-25T05:36:43.597Z,99294.91
2022-08-25T05:39:11.246Z,99288.22
2022-08-25T05:41:38.478Z,99281.63
2022-08-25T05:44:06.164Z,99284.94
2022-08-25T05:46:33.123Z,99278.44
2022-08-25T05:49:00.530Z,99289.53
2022-08-25T05:51:27.431Z,99288.56
2022-08-25T05:53:54.727Z,99278.09
2022-08-25T05:56:22.604Z,99281.41
2022-08-25T05:58:50.426Z,99294.69
2022-08-25T06:01:45.348Z,99280.50
2022-08-25T06:04:13.309Z,99287.88
2022-08-25T06:06:40.934Z,99290.28
2022-08-25T06:09:09.206Z,99278.50
2022-08-25T06:11:38.316Z,99283.34
2022-08-25T06:14:06.630Z,99285.59
2022-08-25T06:16:33.645Z,99277.72
2022-08-25T06:19:01.465Z,99276.47
2022-08-25T06:21:29.783Z,99284.41
2022-08-25T06:23:57.861Z,99280.97
2022-08-25T06:26:24.796Z,99269.16
2022-08-25T06:28:52.296Z,99272.81
2022-08-25T06:31:20.691Z,99271.41
2022-08-25T06:33:47.395Z,99275.59
2022-08-25T06:36:15.766Z,99264.25
2022-08-25T06:38:42.348Z,99264.91
2022-08-25T06:41:13.034Z,99259.91
2022-08-25T06:43:48.057Z,99262.25
2022-08-25T06:46:34.726Z,99264.16
2022-08-25T06:49:05.547Z,99271.09
2022-08-25T06:51:36.231Z,99263.06
2022-08-25T06:54:05.002Z,99263.53
2022-08-25T06:56:32.041Z,99256.16
2022-08-25T06:59:01.109Z,99257.59
2022-08-25T07:01:27.878Z,99254.94
2022-08-25T07:03:57.890Z,99255.16
2022-08-25T07:06:25.172Z,99247.78
2022-08-25T07:08:51.836Z,99243.03
2022-08-25T07:11:21.361Z,99251.69
2022-08-25T07:13:48.697Z,99251.69
2022-08-25T07:16:16.121Z,99254.75
2022-08-25T07:18:44.173Z,99258.00
2022-08-25T07:21:33.639Z,99250.16
2022-08-25T07:24:06.277Z,99252.38
2022-08-25T07:26:38.483Z,99251.53
2022-08-25T07:29:14.447Z,99245.13
2022-08-25T07:31:41.762Z,99249.16
2022-08-25T07:34:28.497Z,99247.69
2022-08-25T07:36:57.152Z,99240.19
2022-08-25T07:39:25.381Z,99239.38
2022-08-25T07:41:53.156Z,99242.59
2022-08-25T07:44:21.701Z,99246.72
2022-08-25T07:46:50.310Z,99236.69
2022-08-25T07:49:23.252Z,99246.41
2022-08-25T07:52:05.427Z,99243.50
2022-08-25T07:54:35.240Z,99246.53
2022-08-25T07:57:03.852Z,99251.03
2022-08-25T07:59:33.465Z,99255.16
2022-08-25T08:02:16.137Z,99249.03
2022-08-25T08:04:49.281Z,99256.34
2022-08-25T08:07:24.081Z,99242.53
2022-08-25T08:10:33.186Z,99254.97
2022-08-25T08:12:56.893Z,99249.47
2022-08-25T08:15:23.798Z,99262.78
2022-08-25T08:17:51.481Z,99253.91
2022-08-25T08:20:23.424Z,99254.19
2022-08-25T08:22:51.524Z,99253.03
2022-08-25T08:25:21.597Z,99253.19
2022-08-25T08:27:59.377Z,99250.34
2022-08-25T08:30:26.656Z,99254.53
2022-08-25T08:33:19.620Z,99262.22
2022-08-25T08:35:41.908Z,99250.19
2022-08-25T08:38:14.703Z,99251.38
2022-08-25T08:41:23.238Z,99247.94
2022-08-25T08:43:57.034Z,99239.69
2022-08-25T08:46:26.255Z,99247.06
2022-08-25T08:49:01.817Z,99239.78
2022-08-25T08:51:33.423Z,99243.69
2022-08-25T08:54:21.487Z,99249.41
2022-08-25T08:56:53.524Z,99249.66
2022-08-25T08:59:30.075Z,99240.78
2022-08-25T09:02:04.212Z,99245.16
2022-08-25T09:05:05.510Z,99237.94
2022-08-25T09:07:47.918Z,99233.47
2022-08-25T09:10:17.227Z,99242.34
2022-08-25T09:12:55.362Z,99240.28
2022-08-25T09:15:49.776Z,99231.72
2022-08-25T09:18:31.821Z,99232.41
2022-08-25T09:21:21.925Z,99226.78
2022-08-25T09:24:16.792Z,99228.69
2022-08-25T09:26:59.047Z,99227.50
2022-08-25T09:29:35.688Z,99220.09
2022-08-25T09:32:06.921Z,99230.81
2022-08-25T09:34:40.436Z,99220.78
2022-08-25T09:37:08.275Z,99211.72
2022-08-25T09:39:36.762Z,99213.41
2022-08-25T09:42:03.880Z,99207.09
2022-08-25T09:44:34.860Z,99213.09
2022-08-25T09:47:20.148Z,99208.81
2022-08-25T09:49:58.032Z,99204.84
2022-08-25T09:52:41.702Z,99202.81
2022-08-25T09:55:26.582Z,99201.59
2022-08-25T09:57:57.008Z,99197.22
2022-08-25T10:00:33.833Z,99185.38
2022-08-25T10:03:10.843Z,99181.13
2022-08-25T10:06:00.506Z,99172.44
2022-08-25T10:08:37.747Z,99162.97
2022-08-25T10:11:14.727Z,99161.97
2022-08-25T10:13:47.174Z,99156.41
2022-08-25T10:16:36.243Z,99160.72
2022-08-25T10:19:28.951Z,99153.06
2022-08-25T10:22:11.172Z,99140.94
2022-08-25T10:24:43.854Z,99137.25
2022-08-25T10:27:28.743Z,99140.47
2022-08-25T10:30:19.640Z,99129.47
2022-08-25T10:33:03.943Z,99125.72
2022-08-25T10:36:09.302Z,99127.03
2022-08-25T10:38:59.002Z,99119.47
2022-08-25T10:42:03.592Z,99111.88
2022-08-25T10:45:16.807Z,99115.56
2022-08-25T10:48:03.875Z,99100.97
2022-08-25T10:51:13.590Z,99087.09
2022-08-25T10:54:02.414Z,99094.66
2022-08-25T10:56:42.517Z,99094.75
2022-08-25T10:59:28.154Z,99091.66
2022-08-25T11:02:13.582Z,99099.06
2022-08-25T11:04:47.190Z,99090.66
2022-08-25T11:07:20.364Z,99087.72
2022-08-25T11:09:50.383Z,99087.66
2022-08-25T11:12:24.337Z,99089.88
2022-08-25T11:14:58.766Z,99080.34
2022-08-25T11:17:27.967Z,99078.25
2022-08-25T11:20:01.778Z,99075.00
2022-08-25T11:22:45.834Z,99074.34
2022-08-25T11:25:30.439Z,99074.28
2022-08-25T11:28:26.472Z,99063.78
2022-08-25T11:30:55.298Z,99060.66
2022-08-25T11:33:24.042Z,99054.84
2022-08-25T11:35:57.056Z,99056.03
2022-08-25T11:38:57.226Z,99048.53
2022-08-25T11:41:47.116Z,99041.59
2022-08-25T11:44:18.023Z,99054.53
2022-08-25T11:47:21.580Z,99046.56
2022-08-25T11:50:02.238Z,99045.97
2022-08-25T11:52:49.509Z,99057.06
2022-08-25T11:55:30.784Z,99046.59
2022-08-25T11:58:21.980Z,99054.47
2022-08-25T12:00:49.112Z,99049.44
2022-08-25T12:03:54.987Z,99043.53
2022-08-25T12:06:34.500Z,99039.88
2022-08-25T12:09:21.695Z,99034.91
2022-08-25T12:11:58.394Z,99033.66
2022-08-25T12:14:37.126Z,99026.22
2022-08-25T12:17:22.439Z,99033.03
2022-08-25T12:19:53.515Z,99018.44
2022-08-25T12:22:41.014Z,99010.25
2022-08-25T12:25:28.629Z,99018.47
2022-08-25T12:28:05.559Z,99015.47
2022-08-25T12:30:50.648Z,99006.28
2022-08-25T12:33:54.524Z,99001.97
2022-08-25T12:36:29.468Z,98988.59
2022-08-25T12:39:19.270Z,98997.94
2022-08-25T12:41:59.630Z,98992.44
2022-08-25T12:44:41.354Z,98987.53
2022-08-25T12:47:32.125Z,98993.88
2022-08-25T12:50:37.301Z,98983.78
2022-08-25T12:53:31.893Z,98982.13
2022-08-25T12:56:05.072Z,98989.84
2022-08-25T12:58:59.824Z,98983.59
2022-08-25T13:01:45.126Z,98990.66
2022-08-25T13:04:52.986Z,98984.53
2022-08-25T13:07:42.792Z,98981.13
2022-08-25T13:10:24.400Z,98977.91
2022-08-25T13:13:00.198Z,98975.91
2022-08-25T13:15:42.018Z,98978.56
2022-08-25T13:18:33.634Z,98981.63
2022-08-25T13:21:23.657Z,98969.16
2022-08-25T13:23:54.086Z,98968.56
2022-08-25T13:26:34.131Z,98975.59
2022-08-25T13:29:12.320Z,98963.63
2022-08-25T13:31:51.712Z,98967.66
2022-08-25T13:34:23.350Z,98967.63
2022-08-25T13:37:30.470Z,98959.56
2022-08-25T13:40:26.074Z,98964.22
2022-08-25T13:42:58.900Z,98959.63
2022-08-25T13:45:31.857Z,98959.31
2022-08-25T13:47:58.736Z,98952.88
2022-08-25T13:50:38.267Z,98950.91
2022-08-25T13:53:36.187Z,98951.66
2022-08-25T13:56:04.390Z,98949.53
2022-08-25T13:58:45.154Z,98949.75
2022-08-25T14:01:48.704Z,98940.19
2022-08-25T14:04:26.902Z,98943.53
2022-08-25T14:07:33.651Z,98933.81
2022-08-25T14:10:05.755Z,98933.28
2022-08-25T14:12:45.684Z,98924.19
2022-08-25T14:15:32.144Z,98927.59
2022-08-25T14:18:06.734Z,98928.72
2022-08-25T14:20:35.760Z,98916.78
2022-08-25T14:23:16.256Z,98909.75
2022-08-25T14:25:46.464Z,98926.56
2022-08-25T14:28:17.984Z,98916.78
2022-08-25T14:30:51.676Z,98911.63
2022-08-25T14:33:20.832Z,98911.63
2022-08-25T14:35:49.608Z,98917.53
2022-08-25T14:38:17.799Z,98919.38
2022-08-25T14:40:48.587Z,98908.00
2022-08-25T14:43:17.514Z,98910.41
2022-08-25T14:45:48.259Z,98903.91
2022-08-25T14:48:42.591Z,98912.84
2022-08-25T14:51:11.982Z,98906.31
2022-08-25T14:53:38.790Z,98900.84
2022-08-25T14:56:09.274Z,98894.94
2022-08-25T14:58:50.796Z,98895.47
2022-08-25T15:01:29.168Z,98896.78
2022-08-25T15:04:01.751Z,98890.25
2022-08-25T15:06:29.156Z,98891.38
2022-08-25T15:09:08.313Z,98891.13
2022-08-25T15:11:38.710Z,98890.28
2022-08-25T15:14:10.766Z,98889.03
2022-08-25T15:16:42.169Z,98888.75
2022-08-25T15:19:11.930Z,98883.38
2022-08-25T15:21:40.191Z,98885.06
2022-08-25T15:24:11.187Z,98881.84
2022-08-25T15:29:24.117Z,98874.75
2022-08-25T15:31:51.805Z,98871.81
2022-08-25T15:34:19.847Z,98872.88
2022-08-25T15:36:46.896Z,98868.81
2022-08-25T15:39:15.894Z,98866.38
2022-08-25T15:41:49.525Z,98863.94
2022-08-25T15:44:16.891Z,98861.75
2022-08-25T15:46:49.557Z,98862.59
2022-08-25T15:49:20.893Z,98853.34
2022-08-25T15:51:50.308Z,98859.63
2022-08-25T15:54:17.280Z,98857.16
2022-08-25T15:56:46.667Z,98847.66
2022-08-25T15:59:14.617Z,98860.69
2022-08-25T16:01:42.070Z,98857.16
2022-08-25T16:04:08.705Z,98857.19
2022-08-25T16:06:37.001Z,98860.13
2022-08-25T16:09:04.767Z,98852.81
2022-08-25T16:11:33.788Z,98847.91
2022-08-25T16:14:03.515Z,98846.31
2022-08-25T16:16:31.506Z,98840.91
2022-08-25T16:19:00.244Z,98844.16
2022-08-25T16:21:32.239Z,98847.38
2022-08-25T16:24:05.476Z,98847.59
2022-08-25T16:26:36.880Z,98838.44
2022-08-25T16:29:07.835Z,98832.19
2022-08-25T16:31:37.099Z,98827.56
2022-08-25T16:34:04.324Z,98830.22
2022-08-25T16:36:31.858Z,98828.88
2022-08-25T16:38:58.971Z,98827.75
2022-08-25T16:41:34.460Z,98829.69
2022-08-25T16:44:11.066Z,98827.44
2022-08-25T16:46:44.422Z,98829.34
2022-08-25T16:49:16.000Z,98827.69
2022-08-25T16:51:43.585Z,98827.16
2022-08-25T16:54:31.566Z,98823.03
2022-08-25T16:57:02.381Z,98831.47
2022-08-25T16:59:33.857Z,98821.13
2022-08-25T17:02:00.637Z,98827.09
2022-08-25T17:04:31.991Z,98819.56
2022-08-25T17:07:01.991Z,98822.25
2022-08-25T17:09:31.853Z,98821.63
2022-08-25T17:11:59.563Z,98820.63
2022-08-25T17:14:26.298Z,98812.44
2022-08-25T17:16:55.220Z,98819.50
2022-08-25T17:19:23.722Z,98819.47
2022-08-25T17:21:51.290Z,98821.09
2022-08-25T17:24:20.026Z,98816.22
2022-08-25T17:26:51.697Z,98821.56
2022-08-25T17:29:19.367Z,98821.56
2022-08-25T17:31:49.138Z,98819.31
2022-08-25T17:34:23.174Z,98814.53
2022-08-25T17:36:50.895Z,98806.06
2022-08-25T17:39:22.381Z,98812.56
2022-08-25T17:41:50.743Z,98804.69
2022-08-25T17:44:19.737Z,98804.13
2022-08-25T17:46:48.072Z,98798.47
2022-08-25T17:49:17.544Z,98809.00
2022-08-25T17:51:45.099Z,98806.63
2022-08-25T17:54:13.163Z,98802.06
2022-08-25T17:56:40.230Z,98802.88
2022-08-25T17:59:10.159Z,98801.16
2022-08-25T18:01:42.212Z,98813.34
2022-08-25T18:04:15.651Z,98807.38
2022-08-25T18:06:48.136Z,98806.78
2022-08-25T18:09:16.004Z,98815.09
2022-08-25T18:11:42.669Z,98808.03
2022-08-25T18:14:11.757Z,98819.94
2022-08-25T18:16:39.016Z,98822.63
2022-08-25T18:19:06.597Z,98820.41
2022-08-25T18:21:36.870Z,98818.78
2022-08-25T18:24:04.185Z,98815.53
2022-08-25T18:26:31.620Z,98823.06
2022-08-25T18:29:03.035Z,98823.75
2022-08-25T18:31:29.949Z,98810.41
2022-08-25T18:33:57.566Z,98819.63
2022-08-25T18:36:24.186Z,98829.34
2022-08-25T18:39:11.210Z,98817.38
2022-08-25T18:41:42.616Z,98823.03
2022-08-25T18:44:10.929Z,98824.59
2022-08-25T18:46:39.536Z,98829.59
2022-08-25T18:49:06.407Z,98829.16
2022-08-25T18:51:33.384Z,98834.84
2022-08-25T18:54:01.067Z,98828.06
2022-08-25T18:56:29.456Z,98827.59
2022-08-25T18:58:57.222Z,98833.50
2022-08-25T19:01:24.138Z,98836.66
2022-08-25T19:03:51.267Z,98841.16
2022-08-25T19:06:19.425Z,98840.78
2022-08-25T19:08:48.022Z,98842.06
2022-08-25T19:11:15.997Z,98842.72
2022-08-25T19:13:42.901Z,98846.00
2022-08-25T19:16:20.358Z,98844.09
2022-08-25T19:18:50.050Z,98848.34
2022-08-25T19:21:22.658Z,98849.28
2022-08-25T19:23:50.667Z,98844.09
2022-08-25T19:26:18.056Z,98842.78
2022-08-25T19:28:48.794Z,98854.22
2022-08-25T19:31:18.371Z,98849.09
2022-08-25T19:33:46.914Z,98858.22
2022-08-25T19:36:22.912Z,98847.84
2022-08-25T19:38:53.927Z,98855.38
2022-08-25T19:41:22.471Z,98851.09
2022-08-25T19:43:58.549Z,98849.13
2022-08-25T19:46:36.620Z,98852.44
2022-08-25T19:49:09.877Z,98848.84
2022-08-25T19:51:50.482Z,98844.69
2022-08-25T19:54:30.353Z,98843.75
2022-08-25T19:57:01.552Z,98851.84
2022-08-25T19:59:36.573Z,98857.38
2022-08-25T20:02:17.377Z,98849.44
2022-08-25T20:04:49.749Z,98852.53
2022-08-25T20:07:25.764Z,98854.00
2022-08-25T20:10:01.787Z,98854.81
2022-08-25T20:12:38.343Z,98853.84
2022-08-25T20:15:11.947Z,98849.91
2022-08-25T20:17:47.220Z,98855.47
2022-08-25T20:20:23.589Z,98850.91
2022-08-25T20:23:17.660Z,98850.63
2022-08-25T20:25:51.975Z,98848.41
2022-08-25T20:28:26.025Z,98850.72
2022-08-25T20:31:03.290Z,98851.28
2022-08-25T20:33:37.222Z,98853.81
2022-08-25T20:36:13.426Z,98862.28
2022-08-25T20:38:47.318Z,98859.00
2022-08-25T20:41:18.374Z,98862.47
2022-08-25T20:43:50.007Z,98870.78
2022-08-25T20:46:24.708Z,98872.25
2022-08-25T20:49:00.400Z,98861.00
2022-08-25T20:51:36.028Z,98868.16
2022-08-25T20:54:11.345Z,98873.97
2022-08-25T20:56:46.803Z,98862.03
2022-08-25T20:59:20.306Z,98864.53
2022-08-25T21:01:53.687Z,98876.88
2022-08-25T21:04:28.947Z,98873.28
2022-08-25T21:07:04.958Z,98869.03
2022-08-25T21:09:40.719Z,98877.09
2022-08-25T21:12:12.400Z,98872.47
2022-08-25T21:14:47.017Z,98872.84
2022-08-25T21:17:21.252Z,98878.47
2022-08-25T21:19:55.704Z,98874.28
2022-08-25T21:22:27.482Z,98877.34
2022-08-25T21:25:03.450Z,98873.03
2022-08-25T21:27:37.432Z,98875.84
2022-08-25T21:30:10.694Z,98878.63
2022-08-25T21:32:40.899Z,98880.72
2022-08-25T21:35:28.200Z,98883.88
2022-08-25T21:37:58.385Z,98877.72
2022-08-25T21:40:30.801Z,98882.16
2022-08-25T21:43:05.798Z,98881.94
2022-08-25T21:45:46.649Z,98886.00
2022-08-25T21:48:17.937Z,98877.50
2022-08-25T21:50:48.476Z,98873.78
2022-08-25T21:53:17.829Z,98875.66
2022-08-25T21:55:44.873Z,98882.81
2022-08-25T21:58:13.567Z,98866.06
2022-08-25T22:00:44.264Z,98873.78
2022-08-25T22:03:14.908Z,98878.00
2022-08-25T22:05:46.008Z,98879.75
2022-08-25T22:08:17.610Z,98874.75
2022-08-25T22:10:48.584Z,98875.81
2022-08-25T22:13:20.560Z,98879.31
2022-08-25T22:15:52.025Z,98874.28
2022-08-25T22:18:20.506Z,98875.81
2022-08-25T22:20:51.029Z,98869.38
2022-08-25T22:23:22.782Z,98866.78
2022-08-25T22:25:57.710Z,98871.03
2022-08-25T22:28:28.794Z,98865.03
2022-08-25T22:30:57.284Z,98861.56
2022-08-25T22:33:26.145Z,98861.69
2022-08-25T22:35:59.830Z,98858.63
2022-08-25T22:38:29.748Z,98859.44
2022-08-25T22:41:04.621Z,98860.63
2022-08-25T22:43:37.331Z,98857.91
2022-08-25T22:46:08.524Z,98864.69
2022-08-25T22:48:41.452Z,98853.69
2022-08-25T22:51:13.215Z,98860.94
2022-08-25T22:53:41.753Z,98852.53
2022-08-25T22:56:12.756Z,98856.25
2022-08-25T22:58:42.147Z,98853.56
2022-08-25T23:01:20.849Z,98852.97
2022-08-25T23:03:49.461Z,98856.38
2022-08-25T23:06:22.682Z,98851.56
2022-08-25T23:08:54.585Z,98848.06
2022-08-25T23:11:25.214Z,98856.50
2022-08-25T23:14:01.292Z,98853.69
2022-08-25T23:16:31.869Z,98851.81
2022-08-25T23:19:01.500Z,98857.63
2022-08-25T23:21:50.206Z,98852.47
2022-08-25T23:24:30.192Z,98844.31
2022-08-25T23:27:03.745Z,98855.84
2022-08-25T23:29:33.085Z,98846.56
2022-08-25T23:32:03.508Z,98845.50
2022-08-25T23:34:33.912Z,98845.41
2022-08-25T23:37:04.271Z,98839.19
2022-08-25T23:39:34.672Z,98835.41
2022-08-25T23:42:08.945Z,98835.19
2022-08-25T23:44:37.380Z,98840.56
2022-08-25T23:47:08.047Z,98839.28
2022-08-25T23:49:39.949Z,98840.56
2022-08-25T23:52:09.028Z,98839.97
2022-08-25T23:54:39.197Z,98839.69
2022-08-25T23:57:09.567Z,98830.66
2022-08-25T23:59:40.347Z,98829.00
